Terminal Aerodrome Forecast
Issued by NWS Tampa Bay Area, FL

Current Version | Previous Version | Text Only | Print | Product List | Glossary On
Versions: 1 2 3 4 5 6 7 8 9 10 11 12 13 14
000
FTUS42 KTBW 242334
TAFFMY
TAF
KFMY 242334Z 2500/2524 27006KT P6SM SCT035 BKN250
     FM250100 VRB03KT P6SM FEW030 SCT250
     FM251500 17005KT P6SM FEW035 SCT250
     FM251800 26008KT P6SM VCTS SCT035CB BKN250=

USA.gov is the U.S. government's official web portal to all federal, state and local government web resources and services.